Time;durP1;ratioP1;P1;durP2;ratioP2;P2;SDS_P1;SDS_P2;PMS_P1;PMS_P2;Temp;Humidity;BMP_temperature;BMP_pressure;BME280_temperature;BME280_humidity;BME280_pressure;Samples;Min_cycle;Max_cycle;Signal;HPM_P1;HPM_P2
2023/10/26 00:00:28;;;;;;;52.35;28.65;;;13.40;99.90;;;;;;5014324;28;20414;-76
2023/10/26 00:02:54;;;;;;;45.60;29.02;;;13.40;99.90;;;;;;5014970;28;20101;-76
2023/10/26 00:05:19;;;;;;;44.10;27.60;;;13.40;99.90;;;;;;4981436;28;20392;-77
2023/10/26 00:07:45;;;;;;;45.67;29.25;;;13.40;99.90;;;;;;4979438;28;20030;-76
2023/10/26 00:10:11;;;;;;;48.53;28.60;;;13.30;99.90;;;;;;4980045;28;20054;-76
2023/10/26 00:12:36;;;;;;;49.67;30.23;;;13.30;99.90;;;;;;4981744;28;20096;-77
2023/10/26 00:15:03;;;;;;;46.58;29.13;;;13.40;99.90;;;;;;4978712;28;20057;-77
2023/10/26 00:17:29;;;;;;;45.60;28.25;;;13.30;99.90;;;;;;5012765;28;20149;-77
2023/10/26 00:19:54;;;;;;;42.75;27.98;;;13.30;99.90;;;;;;4979480;28;20027;-76
2023/10/26 00:22:24;;;;;;;51.97;30.23;;;13.30;99.90;;;;;;4975819;28;20054;-77
2023/10/26 00:24:50;;;;;;;46.45;28.85;;;13.30;99.90;;;;;;4979708;28;20102;-76
2023/10/26 00:27:17;;;;;;;46.72;30.02;;;13.30;99.90;;;;;;4978466;28;20019;-76
2023/10/26 00:29:43;;;;;;;52.47;29.25;;;13.30;99.90;;;;;;4977295;28;20018;-76
2023/10/26 00:32:08;;;;;;;50.75;29.35;;;13.40;99.90;;;;;;4980541;28;20130;-77
2023/10/26 00:34:35;;;;;;;48.13;28.23;;;13.40;99.90;;;;;;4980169;28;20060;-77
2023/10/26 00:37:00;;;;;;;49.60;29.25;;;13.30;99.90;;;;;;5008373;28;20101;-77
2023/10/26 00:39:27;;;;;;;47.53;28.85;;;13.30;99.90;;;;;;5011120;28;20023;-76
2023/10/26 00:41:54;;;;;;;45.92;27.13;;;13.30;99.90;;;;;;4978304;28;20053;-77
2023/10/26 00:44:23;;;;;;;43.20;25.92;;;13.30;99.90;;;;;;4977048;28;20022;-76
2023/10/26 00:46:52;;;;;;;44.97;26.83;;;13.30;99.90;;;;;;4980228;28;20030;-77
2023/10/26 00:49:18;;;;;;;40.20;25.33;;;13.30;99.90;;;;;;4975580;28;20033;-77
2023/10/26 00:51:57;;;;;;;47.97;26.35;;;13.30;99.90;;;;;;5012333;28;20517;-76
2023/10/26 00:54:23;;;;;;;42.10;26.60;;;13.30;99.90;;;;;;4974382;28;20032;-76
2023/10/26 00:56:50;;;;;;;37.17;25.25;;;13.30;99.90;;;;;;4979115;28;20051;-76
2023/10/26 00:59:17;;;;;;;40.72;26.45;;;13.30;99.90;;;;;;4978429;28;20046;-76
2023/10/26 01:01:48;;;;;;;43.70;26.38;;;13.30;99.90;;;;;;4979460;28;20028;-76
2023/10/26 01:04:16;;;;;;;49.58;29.83;;;13.30;99.90;;;;;;5003352;28;20081;-76
2023/10/26 01:06:43;;;;;;;41.80;25.85;;;13.20;99.90;;;;;;4979674;28;20026;-76
2023/10/26 01:09:10;;;;;;;45.53;26.42;;;13.20;99.90;;;;;;5011709;28;20027;-77
2023/10/26 01:11:37;;;;;;;48.60;27.48;;;13.20;99.90;;;;;;4981037;28;20027;-76
2023/10/26 01:14:07;;;;;;;43.83;26.25;;;13.30;99.90;;;;;;4978750;28;20093;-77
2023/10/26 01:16:33;;;;;;;45.45;27.15;;;13.20;99.90;;;;;;4978407;28;20041;-76
2023/10/26 01:18:59;;;;;;;45.33;27.33;;;13.20;99.90;;;;;;4978384;28;20105;-76
2023/10/26 01:21:29;;;;;;;46.00;26.02;;;13.20;99.90;;;;;;4977355;28;20026;-76
2023/10/26 01:23:56;;;;;;;45.65;27.77;;;13.10;99.90;;;;;;4979508;28;20034;-76
2023/10/26 01:26:22;;;;;;;48.33;27.13;;;13.10;99.90;;;;;;5009037;28;20029;-77
2023/10/26 01:28:47;;;;;;;46.95;28.38;;;13.10;99.90;;;;;;5009334;28;20538;-77
2023/10/26 01:31:18;;;;;;;44.60;26.23;;;13.00;99.90;;;;;;4980269;28;20030;-76
2023/10/26 01:33:45;;;;;;;38.45;25.52;;;13.00;99.90;;;;;;4978062;28;20031;-76
2023/10/26 01:36:11;;;;;;;42.78;25.58;;;12.90;99.90;;;;;;4979483;28;20526;-77
2023/10/26 01:38:37;;;;;;;50.08;26.27;;;12.90;99.90;;;;;;4978852;28;20055;-76
2023/10/26 01:41:04;;;;;;;42.17;25.58;;;12.90;99.90;;;;;;5012150;28;20065;-77
2023/10/26 01:43:30;;;;;;;37.50;25.13;;;12.80;99.90;;;;;;4982174;28;20030;-77
2023/10/26 01:45:56;;;;;;;46.13;25.50;;;12.80;99.90;;;;;;4976619;28;20019;-77
2023/10/26 01:48:26;;;;;;;42.60;26.40;;;12.70;99.90;;;;;;4978492;28;20033;-77
2023/10/26 01:50:53;;;;;;;43.03;27.38;;;12.70;99.90;;;;;;4977812;28;20116;-77
2023/10/26 01:53:21;;;;;;;38.88;25.75;;;12.70;99.90;;;;;;4978487;28;20514;-77
2023/10/26 01:55:47;;;;;;;37.97;24.98;;;12.70;99.90;;;;;;4978013;28;20045;-76
2023/10/26 01:58:13;;;;;;;40.95;26.95;;;12.70;99.90;;;;;;5013222;28;20026;-76
2023/10/26 02:00:38;;;;;;;43.67;26.85;;;12.70;99.90;;;;;;4975900;28;20421;-76
2023/10/26 02:03:04;;;;;;;44.15;27.38;;;12.70;99.90;;;;;;5010548;28;20026;-77
2023/10/26 02:05:30;;;;;;;46.08;26.83;;;12.60;99.90;;;;;;4976360;28;20453;-76
2023/10/26 02:07:55;;;;;;;45.70;27.85;;;12.60;99.90;;;;;;4976160;28;20019;-77
2023/10/26 02:10:23;;;;;;;40.40;26.27;;;12.60;99.90;;;;;;5013293;28;20420;-77
2023/10/26 02:12:50;;;;;;;46.72;27.80;;;12.60;99.90;;;;;;5006102;28;20026;-77
2023/10/26 02:15:16;;;;;;;43.22;24.48;;;12.60;99.90;;;;;;5011784;28;20022;-77
2023/10/26 02:17:42;;;;;;;40.90;25.63;;;12.60;99.90;;;;;;4976642;28;20393;-76
2023/10/26 02:20:08;;;;;;;40.40;24.38;;;12.60;99.90;;;;;;4979008;28;20049;-76
2023/10/26 02:22:33;;;;;;;45.28;25.77;;;12.60;99.90;;;;;;4975959;28;20444;-76
2023/10/26 02:24:59;;;;;;;48.05;27.33;;;12.60;99.90;;;;;;5007634;28;20022;-77
2023/10/26 02:27:25;;;;;;;44.60;26.40;;;12.60;99.90;;;;;;5005885;28;20023;-77
2023/10/26 02:29:50;;;;;;;41.70;26.05;;;12.60;99.90;;;;;;4975434;28;20510;-76
2023/10/26 02:32:16;;;;;;;44.45;26.15;;;12.60;99.90;;;;;;4975521;28;20402;-77
2023/10/26 02:34:42;;;;;;;46.90;28.30;;;12.70;99.90;;;;;;5010138;28;20022;-77
2023/10/26 02:37:07;;;;;;;52.28;29.55;;;12.70;99.90;;;;;;5009113;28;20045;-76
2023/10/26 02:39:34;;;;;;;53.63;29.27;;;12.70;99.90;;;;;;5004025;28;20059;-77
2023/10/26 02:41:59;;;;;;;51.28;28.73;;;12.70;99.90;;;;;;4980582;28;20018;-77
2023/10/26 02:44:25;;;;;;;51.03;29.85;;;12.70;99.90;;;;;;4975036;28;20970;-77
2023/10/26 02:46:51;;;;;;;49.00;29.55;;;12.60;99.90;;;;;;4976447;28;20113;-76
2023/10/26 02:49:17;;;;;;;49.10;27.10;;;12.70;99.90;;;;;;5006586;28;20010;-76
2023/10/26 02:51:42;;;;;;;55.00;29.45;;;12.60;99.90;;;;;;4976099;28;20477;-77
2023/10/26 02:54:09;;;;;;;95.82;33.88;;;12.60;99.90;;;;;;4975506;28;20434;-77
2023/10/26 02:56:34;;;;;;;52.25;27.35;;;12.50;99.90;;;;;;5006456;28;20042;-76
2023/10/26 02:59:00;;;;;;;48.85;27.75;;;12.50;99.90;;;;;;4973134;28;20834;-76
2023/10/26 03:01:35;;;;;;;54.42;27.88;;;12.50;99.90;;;;;;5007258;28;20505;-77
2023/10/26 03:04:04;;;;;;;48.58;27.15;;;12.60;99.90;;;;;;5013497;28;20367;-76
2023/10/26 03:06:39;;;;;;;50.95;28.58;;;12.70;99.90;;;;;;4981154;28;20041;-76
2023/10/26 03:09:05;;;;;;;65.65;31.77;;;12.70;99.90;;;;;;4979458;28;20026;-77
2023/10/26 03:11:31;;;;;;;114.32;37.08;;;12.70;99.90;;;;;;5008710;28;20534;-76
2023/10/26 03:13:57;;;;;;;53.50;28.67;;;12.70;99.90;;;;;;4977602;28;20494;-76
2023/10/26 03:16:23;;;;;;;70.20;31.85;;;12.60;99.90;;;;;;4976042;28;20029;-77
2023/10/26 03:18:49;;;;;;;48.88;26.55;;;12.60;99.90;;;;;;5010264;28;20022;-77
2023/10/26 03:21:16;;;;;;;58.13;28.20;;;12.60;99.90;;;;;;4981190;28;20078;-77
2023/10/26 03:23:42;;;;;;;55.60;28.25;;;12.60;99.90;;;;;;4981385;28;20118;-76
2023/10/26 03:26:11;;;;;;;50.28;27.90;;;12.70;99.90;;;;;;4975624;28;20027;-77
2023/10/26 03:28:37;;;;;;;157.38;32.75;;;12.70;99.90;;;;;;4982468;28;20105;-76
2023/10/26 03:31:09;;;;;;;152.02;34.15;;;12.50;99.90;;;;;;4977801;28;20438;-76
2023/10/26 03:33:35;;;;;;;67.20;31.70;;;12.50;99.90;;;;;;4975470;28;20019;-76
2023/10/26 03:36:00;;;;;;;57.72;27.63;;;12.60;99.90;;;;;;5012523;28;20081;-76
2023/10/26 03:38:26;;;;;;;50.75;27.25;;;12.60;99.90;;;;;;4982517;28;20517;-77
2023/10/26 03:40:52;;;;;;;43.42;26.20;;;12.60;99.90;;;;;;4980449;28;20121;-75
2023/10/26 03:43:18;;;;;;;51.42;26.88;;;12.60;99.90;;;;;;4978727;28;20323;-76
2023/10/26 03:45:47;;;;;;;49.47;26.38;;;12.60;99.90;;;;;;5012009;28;20035;-76
2023/10/26 03:48:12;;;;;;;47.72;26.35;;;12.60;99.90;;;;;;4982049;28;20079;-77
2023/10/26 03:50:38;;;;;;;80.45;29.30;;;12.60;99.90;;;;;;4977643;28;20030;-76
2023/10/26 03:53:04;;;;;;;42.45;26.77;;;12.50;99.90;;;;;;4976708;28;21023;-76
2023/10/26 03:55:30;;;;;;;96.18;31.25;;;12.30;99.90;;;;;;4981707;28;20031;-77
2023/10/26 03:57:56;;;;;;;43.38;24.15;;;12.30;99.90;;;;;;4980027;28;20545;-77
2023/10/26 04:00:21;;;;;;;43.50;24.58;;;12.40;99.90;;;;;;4978264;28;20117;-77
2023/10/26 04:02:47;;;;;;;45.25;24.83;;;12.40;99.90;;;;;;4981136;28;20053;-76
2023/10/26 04:05:15;;;;;;;44.78;25.30;;;12.40;99.90;;;;;;4974602;28;20030;-76
2023/10/26 04:07:42;;;;;;;49.58;25.27;;;12.40;99.90;;;;;;4979473;28;20069;-77
2023/10/26 04:10:09;;;;;;;43.03;24.10;;;12.30;99.90;;;;;;4977486;28;20026;-77
2023/10/26 04:12:35;;;;;;;39.78;24.73;;;12.30;99.90;;;;;;4982533;28;20030;-76
2023/10/26 04:15:01;;;;;;;41.45;24.38;;;12.30;99.90;;;;;;4977887;28;20094;-77
2023/10/26 04:17:27;;;;;;;43.78;24.70;;;12.30;99.90;;;;;;5014875;28;20389;-77
2023/10/26 04:19:53;;;;;;;42.92;24.23;;;12.30;99.90;;;;;;4980371;28;20095;-77
2023/10/26 04:22:18;;;;;;;42.30;25.15;;;12.30;99.90;;;;;;4980165;28;20109;-77
2023/10/26 04:24:44;;;;;;;46.97;25.52;;;12.30;99.90;;;;;;4978015;28;20019;-76
2023/10/26 04:27:10;;;;;;;45.42;25.85;;;12.20;99.90;;;;;;4981171;28;20062;-76
2023/10/26 04:29:35;;;;;;;46.05;25.40;;;12.30;99.90;;;;;;5007225;28;20062;-76
2023/10/26 04:32:01;;;;;;;47.67;26.75;;;12.30;99.90;;;;;;4980154;28;20374;-77
2023/10/26 04:34:27;;;;;;;49.65;26.83;;;12.30;99.90;;;;;;4976504;28;20065;-77
2023/10/26 04:36:53;;;;;;;48.17;26.35;;;12.30;99.90;;;;;;4980202;28;20466;-77
2023/10/26 04:39:18;;;;;;;46.65;25.67;;;12.40;99.90;;;;;;4979123;28;20512;-76
2023/10/26 04:41:44;;;;;;;75.70;33.25;;;12.30;99.90;;;;;;4977737;28;20475;-75
2023/10/26 04:44:11;;;;;;;98.45;42.30;;;12.30;99.90;;;;;;4974664;28;20041;-76
2023/10/26 04:46:37;;;;;;;97.95;43.38;;;12.30;99.90;;;;;;5009991;28;20516;-76
2023/10/26 04:49:03;;;;;;;101.80;42.85;;;12.30;99.90;;;;;;4973580;28;20023;-77
2023/10/26 04:51:31;;;;;;;199.68;51.00;;;12.30;99.90;;;;;;4980203;28;20022;-77
2023/10/26 04:53:57;;;;;;;437.50;68.85;;;12.10;99.90;;;;;;5009715;28;20026;-76
2023/10/26 04:56:23;;;;;;;295.20;53.53;;;11.90;99.90;;;;;;4975209;28;20085;-76
2023/10/26 04:58:49;;;;;;;125.65;47.67;;;12.00;99.90;;;;;;4977865;28;20550;-77
2023/10/26 05:01:15;;;;;;;115.63;47.67;;;12.10;99.90;;;;;;4976007;28;20031;-76
2023/10/26 05:03:40;;;;;;;134.73;51.00;;;12.20;99.90;;;;;;4977060;28;20398;-76
2023/10/26 05:06:06;;;;;;;134.98;49.03;;;12.10;99.90;;;;;;4982478;28;20062;-76
2023/10/26 05:08:32;;;;;;;166.68;53.58;;;12.20;99.90;;;;;;4980192;28;20088;-77
2023/10/26 05:10:58;;;;;;;138.63;50.60;;;12.10;99.90;;;;;;5006892;28;20375;-76
2023/10/26 05:13:25;;;;;;;147.00;52.83;;;12.10;99.90;;;;;;4978129;28;20026;-76
2023/10/26 05:15:50;;;;;;;173.38;55.90;;;12.10;99.90;;;;;;4977615;28;20068;-77
2023/10/26 05:18:17;;;;;;;125.00;47.60;;;12.10;99.90;;;;;;5013093;28;20462;-76
2023/10/26 05:20:48;;;;;;;175.07;55.22;;;12.20;99.90;;;;;;4978223;28;20423;-77
2023/10/26 05:23:14;;;;;;;119.07;48.17;;;12.30;99.90;;;;;;4976946;28;20031;-77
2023/10/26 05:25:40;;;;;;;152.82;51.67;;;12.30;99.90;;;;;;4979466;28;20423;-77
2023/10/26 05:28:06;;;;;;;745.05;76.55;;;12.30;99.90;;;;;;4978977;28;20031;-77
2023/10/26 05:30:32;;;;;;;145.80;51.70;;;12.20;99.90;;;;;;5006395;28;20458;-77
2023/10/26 05:32:58;;;;;;;132.48;51.38;;;12.20;99.90;;;;;;4975135;28;20533;-77
2023/10/26 05:35:24;;;;;;;146.63;50.33;;;12.20;99.90;;;;;;4978200;28;20036;-76
2023/10/26 05:37:50;;;;;;;485.17;62.78;;;12.30;99.90;;;;;;5004557;28;20034;-76
2023/10/26 05:40:15;;;;;;;130.60;52.22;;;12.30;99.90;;;;;;4976474;28;20022;-77
2023/10/26 05:42:41;;;;;;;850.83;72.88;;;12.20;99.90;;;;;;5006389;28;20010;-77
2023/10/26 05:45:08;;;;;;;240.93;53.55;;;12.10;99.90;;;;;;5012641;28;20041;-76
2023/10/26 05:47:33;;;;;;;637.13;63.85;;;12.10;99.90;;;;;;4976550;28;20025;-77
2023/10/26 05:49:59;;;;;;;611.45;67.95;;;12.10;99.90;;;;;;4975281;28;20386;-77
2023/10/26 05:52:25;;;;;;;137.50;43.25;;;11.90;99.90;;;;;;4975864;28;20052;-75
2023/10/26 05:54:52;;;;;;;221.95;48.25;;;11.90;99.90;;;;;;5008841;28;20038;-76
2023/10/26 05:57:18;;;;;;;187.27;44.47;;;11.80;99.90;;;;;;4969283;28;20041;-76
2023/10/26 05:59:44;;;;;;;280.58;51.60;;;11.70;99.90;;;;;;4975171;28;20018;-76
2023/10/26 06:02:10;;;;;;;152.98;44.85;;;11.60;99.90;;;;;;5008461;28;20022;-76
2023/10/26 06:04:36;;;;;;;182.40;47.33;;;11.80;99.90;;;;;;4976198;28;20016;-76
2023/10/26 06:07:02;;;;;;;138.20;45.40;;;11.70;99.90;;;;;;4980456;28;22123;-76
2023/10/26 06:09:27;;;;;;;143.45;44.58;;;11.70;99.90;;;;;;4978723;28;20402;-77
2023/10/26 06:11:53;;;;;;;396.02;48.15;;;11.90;99.90;;;;;;4983443;28;20015;-76
2023/10/26 06:14:19;;;;;;;140.43;42.45;;;11.80;99.90;;;;;;4980905;28;20489;-76
2023/10/26 06:16:45;;;;;;;515.75;57.75;;;11.70;99.90;;;;;;5005713;28;20026;-76
2023/10/26 06:19:13;;;;;;;551.38;54.92;;;11.70;99.90;;;;;;4974662;28;20548;-76
2023/10/26 06:21:39;;;;;;;105.18;40.70;;;11.70;99.90;;;;;;4968312;28;20019;-76
2023/10/26 06:24:06;;;;;;;125.90;41.40;;;11.80;99.90;;;;;;4972818;28;20453;-77
2023/10/26 06:26:32;;;;;;;136.63;42.42;;;11.90;99.90;;;;;;4970377;28;20077;-76
2023/10/26 06:28:59;;;;;;;252.93;46.53;;;12.00;99.90;;;;;;4978610;28;20126;-77
2023/10/26 06:31:25;;;;;;;470.88;50.30;;;11.90;99.90;;;;;;5010724;28;20540;-76
2023/10/26 06:33:51;;;;;;;321.95;43.88;;;11.70;99.90;;;;;;5004171;28;20046;-77
2023/10/26 06:36:17;;;;;;;120.03;39.35;;;11.60;99.90;;;;;;4978572;28;20019;-76
2023/10/26 06:38:43;;;;;;;574.13;53.38;;;11.40;99.90;;;;;;4974523;28;20943;-76
2023/10/26 06:41:10;;;;;;;106.45;38.22;;;11.40;99.90;;;;;;4975939;28;20042;-77
2023/10/26 06:43:37;;;;;;;167.18;39.15;;;11.50;99.90;;;;;;4971290;28;20097;-77
2023/10/26 06:46:03;;;;;;;255.95;42.42;;;11.60;99.90;;;;;;4973492;28;20157;-77
2023/10/26 06:48:28;;;;;;;166.45;41.60;;;11.70;99.90;;;;;;5003297;28;20034;-77
2023/10/26 06:51:02;;;;;;;255.65;41.83;;;11.80;99.90;;;;;;4974618;28;20030;-76
2023/10/26 06:53:28;;;;;;;293.92;48.03;;;11.60;99.90;;;;;;4997838;28;20022;-77
2023/10/26 06:55:54;;;;;;;180.25;40.83;;;11.70;99.90;;;;;;4975916;28;20121;-77
2023/10/26 06:58:20;;;;;;;451.42;49.22;;;11.80;99.90;;;;;;4969820;28;20027;-76
2023/10/26 07:04:46;;;;;;;479.45;49.38;;;11.50;99.90;;;;;;4973015;28;20368;-76
2023/10/26 07:07:14;;;;;;;238.77;43.25;;;11.30;99.90;;;;;;5004800;28;20077;-76
2023/10/26 07:09:40;;;;;;;564.42;56.92;;;11.50;99.90;;;;;;5005727;28;20022;-75
2023/10/26 07:12:06;;;;;;;459.33;51.85;;;11.60;99.90;;;;;;4971734;28;20030;-76
2023/10/26 07:14:32;;;;;;;736.22;65.13;;;11.60;99.90;;;;;;5005672;28;20018;-76
2023/10/26 07:16:58;;;;;;;241.63;42.78;;;11.60;99.90;;;;;;5004643;28;20399;-76
2023/10/26 07:19:23;;;;;;;159.70;39.35;;;11.60;99.90;;;;;;4972839;28;20030;-76
2023/10/26 07:21:49;;;;;;;211.48;37.75;;;11.70;99.90;;;;;;5005778;28;20089;-76
2023/10/26 07:24:15;;;;;;;509.98;49.67;;;11.70;99.90;;;;;;4972446;28;20417;-75
2023/10/26 07:26:41;;;;;;;155.05;36.50;;;11.70;99.90;;;;;;4970606;28;20086;-75
2023/10/26 07:29:06;;;;;;;217.02;35.15;;;11.70;99.90;;;;;;4969406;28;20074;-76
2023/10/26 07:31:32;;;;;;;171.52;31.67;;;11.60;99.90;;;;;;5003426;28;20015;-76
2023/10/26 07:33:58;;;;;;;216.75;38.63;;;11.70;99.90;;;;;;5000973;28;20529;-76
2023/10/26 07:36:26;;;;;;;410.42;39.80;;;11.80;99.90;;;;;;5004709;28;20022;-76
2023/10/26 07:38:52;;;;;;;215.27;35.10;;;11.60;99.90;;;;;;4970029;28;20031;-76
2023/10/26 07:41:17;;;;;;;175.50;33.88;;;11.50;99.90;;;;;;4974924;28;20065;-76
2023/10/26 07:43:48;;;;;;;188.50;33.97;;;11.50;99.90;;;;;;4997824;28;20679;-77
2023/10/26 07:46:15;;;;;;;176.38;34.22;;;11.60;99.90;;;;;;4980231;28;20054;-77
2023/10/26 07:48:41;;;;;;;219.30;35.58;;;11.70;99.90;;;;;;4973290;28;20073;-77
2023/10/26 07:51:07;;;;;;;320.65;39.13;;;11.50;99.90;;;;;;4968794;28;20700;-76
2023/10/26 07:53:33;;;;;;;80.63;29.98;;;11.20;99.90;;;;;;4999754;28;20026;-77
2023/10/26 07:55:59;;;;;;;115.80;32.40;;;11.30;99.90;;;;;;4970565;28;20033;-77
2023/10/26 07:58:29;;;;;;;142.80;33.03;;;11.30;99.90;;;;;;4969509;28;20490;-77
2023/10/26 08:00:56;;;;;;;111.50;29.77;;;11.40;99.90;;;;;;4974968;28;20023;-77
2023/10/26 08:03:24;;;;;;;137.98;30.83;;;11.30;99.90;;;;;;5001376;28;20019;-77
2023/10/26 08:05:57;;;;;;;226.57;29.88;;;11.30;99.90;;;;;;4999985;28;20025;-77
2023/10/26 08:08:23;;;;;;;79.13;25.42;;;11.20;99.90;;;;;;4976790;28;20015;-77
2023/10/26 08:10:48;;;;;;;157.80;27.15;;;11.20;99.90;;;;;;5003548;28;20022;-76
2023/10/26 08:13:15;;;;;;;105.40;25.58;;;11.30;99.90;;;;;;4977495;28;20014;-76
2023/10/26 08:15:42;;;;;;;116.95;25.52;;;11.40;99.90;;;;;;4976003;28;20423;-76
2023/10/26 08:18:08;;;;;;;146.18;24.33;;;11.60;99.90;;;;;;5008165;28;20114;-76
2023/10/26 08:20:34;;;;;;;84.63;22.52;;;11.40;99.90;;;;;;4979609;28;20105;-76
2023/10/26 08:23:02;;;;;;;241.50;27.67;;;11.40;99.90;;;;;;4981642;28;20025;-76
2023/10/26 08:25:28;;;;;;;149.05;25.27;;;11.30;99.90;;;;;;5009590;28;20037;-76
2023/10/26 08:27:53;;;;;;;149.00;23.95;;;11.30;99.90;;;;;;4979482;28;20030;-76
2023/10/26 08:30:20;;;;;;;172.57;25.58;;;11.20;99.90;;;;;;4975793;28;20073;-76
2023/10/26 08:32:48;;;;;;;233.40;28.25;;;11.20;99.90;;;;;;4980275;28;24531;-77
2023/10/26 08:35:14;;;;;;;78.32;22.75;;;11.10;99.90;;;;;;5011571;28;20038;-76
2023/10/26 08:37:40;;;;;;;159.13;23.42;;;11.00;99.90;;;;;;4974815;28;20536;-76
2023/10/26 08:40:11;;;;;;;26.88;16.02;;;11.00;99.90;;;;;;4973640;28;20030;-76
2023/10/26 08:42:40;;;;;;;181.38;23.55;;;11.10;99.90;;;;;;4990777;28;22130;-76
2023/10/26 08:45:12;;;;;;;64.13;21.25;;;11.20;99.90;;;;;;4975390;28;20057;-76
2023/10/26 08:47:39;;;;;;;;;;;11.20;99.90;;;;;;4973120;28;20029;-76
2023/10/26 08:50:07;;;;;;;118.18;25.25;;;11.30;99.90;;;;;;4972798;28;19913;-76
2023/10/26 08:52:33;;;;;;;53.63;23.67;;;11.40;99.90;;;;;;5005120;28;20022;-76
2023/10/26 08:54:59;;;;;;;49.47;23.20;;;11.50;99.90;;;;;;4976281;28;20759;-76
2023/10/26 08:57:24;;;;;;;117.78;27.88;;;11.40;99.90;;;;;;4971828;28;20042;-76
2023/10/26 08:59:50;;;;;;;162.98;26.45;;;11.50;99.90;;;;;;4976029;28;20097;-77
2023/10/26 09:02:16;;;;;;;69.43;21.08;;;11.40;99.90;;;;;;4977077;28;20010;-76
2023/10/26 09:05:02;;;;;;;54.08;21.70;;;11.20;99.90;;;;;;4971803;28;20515;-76
2023/10/26 09:07:28;;;;;;;110.88;24.65;;;11.30;99.90;;;;;;4975669;28;20409;-76
2023/10/26 09:09:54;;;;;;;100.53;26.92;;;11.20;99.90;;;;;;4976128;28;20022;-76
2023/10/26 09:12:19;;;;;;;113.90;26.23;;;11.40;99.90;;;;;;4974795;28;20034;-76
2023/10/26 09:15:02;;;;;;;88.88;23.85;;;11.40;99.90;;;;;;4973324;28;20387;-76
2023/10/26 09:17:29;;;;;;;168.68;27.75;;;11.30;99.90;;;;;;4976346;28;20022;-76
2023/10/26 09:19:54;;;;;;;76.70;24.63;;;11.40;99.90;;;;;;4979324;28;20049;-76
2023/10/26 09:22:37;;;;;;;154.52;29.52;;;11.50;99.90;;;;;;5006772;28;20051;-76
2023/10/26 09:25:12;;;;;;;130.07;29.17;;;11.40;99.90;;;;;;4969301;28;20472;-76
2023/10/26 09:27:38;;;;;;;79.45;25.77;;;11.30;99.90;;;;;;4977722;28;20022;-76
2023/10/26 09:30:05;;;;;;;65.28;26.70;;;11.40;99.90;;;;;;4972092;28;20019;-76
2023/10/26 09:32:32;;;;;;;66.45;25.17;;;11.60;99.90;;;;;;4977929;28;20381;-76
2023/10/26 09:34:59;;;;;;;62.78;25.58;;;11.80;99.90;;;;;;5006344;28;20025;-76
2023/10/26 09:37:25;;;;;;;61.90;25.48;;;11.80;99.90;;;;;;4975556;28;20030;-76
2023/10/26 09:39:52;;;;;;;79.45;28.88;;;11.90;99.90;;;;;;4973718;28;20398;-76
2023/10/26 09:42:19;;;;;;;68.53;28.92;;;12.00;99.90;;;;;;4972798;28;20046;-77
2023/10/26 09:44:45;;;;;;;60.28;25.30;;;12.00;99.90;;;;;;4972549;28;20459;-76
2023/10/26 09:47:12;;;;;;;62.05;26.20;;;12.00;99.90;;;;;;4975837;28;20031;-76
2023/10/26 09:49:37;;;;;;;54.90;24.02;;;12.10;99.90;;;;;;5005034;28;20518;-76
2023/10/26 09:52:04;;;;;;;60.28;25.17;;;12.00;99.90;;;;;;4970072;28;20077;-76
2023/10/26 09:54:36;;;;;;;56.58;25.48;;;11.90;99.90;;;;;;4977266;28;20037;-76
2023/10/26 09:57:09;;;;;;;64.45;25.63;;;12.00;99.90;;;;;;4978110;28;20030;-76
2023/10/26 09:59:36;;;;;;;64.05;28.48;;;12.10;99.90;;;;;;4972940;28;20015;-76
2023/10/26 10:02:16;;;;;;;59.72;26.58;;;12.10;99.90;;;;;;5002196;28;20022;-76
2023/10/26 10:04:43;;;;;;;67.68;24.85;;;12.20;99.90;;;;;;4974975;28;20479;-76
2023/10/26 10:07:09;;;;;;;95.75;28.55;;;12.10;99.90;;;;;;5008130;28;20527;-76
2023/10/26 10:10:01;;;;;;;80.05;30.77;;;11.90;99.90;;;;;;4977864;28;20095;-76
2023/10/26 10:12:27;;;;;;;66.18;28.50;;;11.90;99.90;;;;;;4972436;28;20041;-76
2023/10/26 10:14:58;;;;;;;92.80;31.08;;;12.10;99.90;;;;;;4974728;28;20058;-76
2023/10/26 10:17:42;;;;;;;98.32;31.58;;;12.10;99.90;;;;;;4991925;28;20038;-77
2023/10/26 10:20:28;;;;;;;81.43;29.95;;;12.00;99.90;;;;;;4972217;28;20033;-76
2023/10/26 10:22:56;;;;;;;73.75;32.08;;;12.00;99.90;;;;;;4969897;28;20096;-76
2023/10/26 10:25:24;;;;;;;72.28;31.13;;;12.20;99.90;;;;;;4975342;28;20080;-76
2023/10/26 10:27:50;;;;;;;75.53;30.98;;;12.30;99.90;;;;;;5001407;28;20082;-76
2023/10/26 10:30:19;;;;;;;69.72;31.08;;;12.40;99.90;;;;;;4974320;28;20026;-76
2023/10/26 10:32:47;;;;;;;91.03;35.03;;;12.40;99.90;;;;;;4968851;28;20588;-76
2023/10/26 10:35:31;;;;;;;83.63;34.35;;;12.50;99.90;;;;;;5006438;28;20025;-76
2023/10/26 10:38:12;;;;;;;67.13;31.60;;;12.40;99.90;;;;;;4994858;28;20036;-76
2023/10/26 10:40:40;;;;;;;70.25;31.42;;;12.30;99.90;;;;;;4977437;28;20466;-76
2023/10/26 10:43:06;;;;;;;66.28;31.35;;;12.30;99.90;;;;;;4974437;28;20019;-76
2023/10/26 10:45:32;;;;;;;85.70;35.53;;;12.40;99.90;;;;;;4976086;28;20026;-76
2023/10/26 10:47:58;;;;;;;75.80;35.10;;;12.30;99.90;;;;;;5001282;28;20349;-77
2023/10/26 10:50:27;;;;;;;80.82;36.05;;;12.40;99.90;;;;;;5004638;28;20080;-76
2023/10/26 10:52:57;;;;;;;78.70;38.85;;;12.40;99.90;;;;;;4977567;28;20585;-76
2023/10/26 10:55:39;;;;;;;81.93;36.97;;;12.50;99.90;;;;;;4996741;28;20538;-76
2023/10/26 10:58:05;;;;;;;77.55;36.17;;;12.50;99.90;;;;;;4972042;28;20034;-76
2023/10/26 11:00:48;;;;;;;78.47;37.00;;;12.50;99.90;;;;;;4969876;28;20055;-76
2023/10/26 11:03:23;;;;;;;90.73;37.80;;;12.60;99.90;;;;;;4970398;28;20520;-76
2023/10/26 11:05:49;;;;;;;85.35;38.35;;;12.50;99.90;;;;;;4971311;28;20545;-76
2023/10/26 11:08:15;;;;;;;77.90;38.45;;;12.50;99.90;;;;;;4973321;28;20121;-76
2023/10/26 11:10:48;;;;;;;85.72;38.90;;;12.50;99.90;;;;;;5005783;28;20368;-76
2023/10/26 11:13:19;;;;;;;81.40;36.90;;;12.60;99.90;;;;;;4964772;28;20076;-76
2023/10/26 11:15:45;;;;;;;79.65;37.97;;;12.70;99.90;;;;;;4971574;28;20025;-76
2023/10/26 11:18:11;;;;;;;86.95;43.13;;;12.80;99.90;;;;;;4973848;28;20026;-76
2023/10/26 11:20:41;;;;;;;77.60;38.25;;;12.80;99.90;;;;;;4976430;28;20476;-76
2023/10/26 11:23:10;;;;;;;83.50;41.25;;;12.90;99.90;;;;;;4972948;28;20046;-76
2023/10/26 11:25:35;;;;;;;88.82;43.03;;;12.90;99.90;;;;;;4974577;28;20019;-76
2023/10/26 11:28:01;;;;;;;88.78;44.38;;;12.90;99.90;;;;;;5009669;28;20554;-76
2023/10/26 11:30:27;;;;;;;84.32;42.92;;;12.90;99.90;;;;;;4971619;28;20390;-76
2023/10/26 11:32:53;;;;;;;86.20;43.25;;;13.00;99.90;;;;;;4974578;28;20034;-76
2023/10/26 11:35:20;;;;;;;84.53;41.90;;;13.00;99.90;;;;;;4999089;28;20137;-76
2023/10/26 11:37:52;;;;;;;93.15;45.53;;;13.10;99.90;;;;;;4974240;28;20501;-76
2023/10/26 11:40:27;;;;;;;93.18;44.58;;;13.20;99.90;;;;;;4971578;28;20102;-75
2023/10/26 11:42:57;;;;;;;88.15;45.42;;;13.20;99.90;;;;;;4975549;28;20023;-75
2023/10/26 11:45:25;;;;;;;85.78;44.30;;;13.30;99.90;;;;;;4979369;28;20022;-75
2023/10/26 11:48:01;;;;;;;94.43;44.60;;;13.30;99.90;;;;;;5007167;28;20556;-75
2023/10/26 11:50:32;;;;;;;89.78;45.28;;;13.30;99.90;;;;;;4967808;28;20069;-75
2023/10/26 11:53:02;;;;;;;87.15;44.20;;;13.30;99.90;;;;;;4974062;28;20018;-75
2023/10/26 11:55:31;;;;;;;98.95;45.90;;;13.30;99.90;;;;;;5005902;28;20019;-76
2023/10/26 11:58:01;;;;;;;93.05;46.22;;;13.30;99.90;;;;;;4972550;28;20042;-76
2023/10/26 12:00:28;;;;;;;92.57;44.33;;;13.30;99.90;;;;;;4975288;28;20347;-75
2023/10/26 12:02:55;;;;;;;90.68;45.67;;;13.40;99.90;;;;;;5008748;28;20027;-75
2023/10/26 12:05:22;;;;;;;96.43;45.15;;;13.40;99.90;;;;;;4975365;28;20007;-75
2023/10/26 12:07:48;;;;;;;88.32;44.03;;;13.50;99.90;;;;;;4973398;28;20034;-76
2023/10/26 12:10:16;;;;;;;87.75;43.67;;;13.50;99.90;;;;;;4976868;28;20189;-75
2023/10/26 12:12:43;;;;;;;82.05;43.58;;;13.50;99.90;;;;;;5005851;28;20019;-75
2023/10/26 12:15:09;;;;;;;80.57;41.63;;;13.60;99.90;;;;;;4970462;28;20015;-75
2023/10/26 12:17:35;;;;;;;85.00;43.55;;;13.60;99.90;;;;;;4973146;28;20031;-75
2023/10/26 12:20:02;;;;;;;75.15;42.22;;;13.50;99.90;;;;;;4969872;28;20025;-75
2023/10/26 12:22:28;;;;;;;81.25;42.60;;;13.60;99.90;;;;;;4977521;28;20466;-75
2023/10/26 12:24:54;;;;;;;79.03;42.25;;;13.70;99.90;;;;;;5007840;28;20021;-75
2023/10/26 12:27:20;;;;;;;68.70;37.53;;;13.70;99.90;;;;;;4978133;28;20046;-75